createdAt,value
2018-04-05T00:00:50.850Z,79.7
2018-04-05T00:01:52.456Z,80.4
2018-04-05T00:02:54.068Z,79.5
2018-04-05T00:03:55.680Z,79.7
2018-04-05T00:04:57.292Z,78.7
2018-04-05T00:05:58.898Z,78.9
2018-04-05T00:07:00.513Z,79.7
2018-04-05T00:08:02.124Z,81.0
2018-04-05T00:09:03.735Z,81.5
2018-04-05T00:10:05.340Z,80.7
2018-04-05T00:11:06.954Z,80.7
2018-04-05T00:12:08.562Z,81.2
2018-04-05T00:13:10.179Z,79.9
2018-04-05T00:14:11.745Z,79.8
2018-04-05T00:15:13.351Z,80.8
2018-04-05T00:16:14.964Z,81.2
2018-04-05T00:17:16.566Z,80.9
2018-04-05T00:18:18.180Z,80.7
2018-04-05T00:19:19.785Z,82.1
2018-04-05T00:20:21.407Z,81.7
2018-04-05T00:21:23.008Z,80.4
2018-04-05T00:22:24.618Z,81.7
2018-04-05T00:23:26.225Z,81.6
2018-04-05T00:24:27.838Z,80.4
2018-04-05T00:25:29.447Z,81.0
2018-04-05T00:26:31.064Z,81.7
2018-04-05T00:27:33.211Z,80.1
2018-04-05T00:28:34.824Z,81.6
2018-04-05T00:29:36.431Z,81.0
2018-04-05T00:30:38.037Z,81.1
2018-04-05T00:31:39.651Z,80.9
2018-04-05T00:32:41.261Z,81.0
2018-04-05T00:33:42.876Z,80.9
2018-04-05T00:34:44.484Z,81.1
2018-04-05T00:35:46.098Z,81.2
2018-04-05T00:36:47.704Z,82.0
2018-04-05T00:37:49.316Z,82.0
2018-04-05T00:38:50.925Z,81.5
2018-04-05T00:39:52.535Z,81.0
2018-04-05T00:40:54.141Z,81.1
2018-04-05T00:41:55.754Z,81.5
2018-04-05T00:42:57.361Z,81.6
2018-04-05T00:43:58.970Z,81.3
2018-04-05T00:45:00.576Z,82.4
2018-04-05T00:46:02.813Z,81.7
2018-04-05T00:47:03.796Z,81.1
2018-04-05T00:48:05.412Z,81.8
2018-04-05T00:49:07.018Z,81.4
2018-04-05T00:50:08.631Z,81.5
2018-04-05T00:51:10.238Z,81.6
2018-04-05T00:52:11.847Z,81.5
2018-04-05T00:53:13.460Z,81.6
2018-04-05T00:54:15.069Z,81.5
2018-04-05T00:55:16.683Z,82.0
2018-04-05T00:56:18.289Z,81.2
2018-04-05T00:57:19.904Z,82.4
2018-04-05T00:58:21.518Z,82.1
2018-04-05T00:59:23.125Z,81.5
2018-04-05T01:00:24.732Z,82.4
2018-04-05T01:01:26.339Z,81.3
2018-04-05T01:02:27.949Z,82.1
2018-04-05T01:03:29.585Z,81.3
2018-04-05T01:04:31.196Z,80.9
2018-04-05T01:05:32.801Z,81.7
2018-04-05T01:06:34.410Z,81.5
2018-04-05T01:07:36.020Z,81.4
2018-04-05T01:08:37.627Z,81.1
2018-04-05T01:09:39.244Z,80.8
2018-04-05T01:10:40.854Z,81.4
2018-04-05T01:11:42.467Z,81.3
2018-04-05T01:12:44.076Z,81.8
2018-04-05T01:13:45.682Z,81.4
2018-04-05T01:14:47.340Z,80.4
2018-04-05T01:15:48.902Z,81.5
2018-04-05T01:16:50.511Z,82.2
2018-04-05T01:17:52.125Z,81.1
2018-04-05T01:18:53.736Z,80.6
2018-04-05T01:19:55.346Z,81.0
2018-04-05T01:20:56.957Z,81.5
2018-04-05T01:21:58.570Z,81.6
2018-04-05T01:23:00.182Z,81.0
2018-04-05T01:24:01.788Z,80.8
2018-04-05T01:25:03.405Z,81.1
2018-04-05T01:26:05.015Z,80.8
2018-04-05T01:27:06.623Z,81.1
2018-04-05T01:28:08.227Z,80.6
2018-04-05T01:29:09.838Z,81.8
2018-04-05T01:30:11.450Z,81.3
2018-04-05T01:31:13.054Z,81.6
2018-04-05T01:32:14.667Z,81.5
2018-04-05T01:33:16.279Z,81.5
2018-04-05T01:34:17.889Z,81.7
2018-04-05T01:35:19.495Z,80.5
2018-04-05T01:36:21.116Z,82.1
2018-04-05T01:37:22.729Z,81.3
2018-04-05T01:38:24.340Z,81.0
2018-04-05T01:39:25.944Z,81.8
2018-04-05T01:40:27.555Z,80.6
2018-04-05T01:41:29.167Z,81.1
2018-04-05T01:42:30.770Z,81.4
2018-04-05T01:43:32.380Z,81.3
2018-04-05T01:44:33.991Z,81.2
2018-04-05T01:45:35.597Z,80.8
2018-04-05T01:46:37.210Z,81.7
2018-04-05T01:47:38.826Z,81.6
2018-04-05T01:48:40.432Z,81.3
2018-04-05T01:49:42.047Z,81.2
2018-04-05T01:50:43.656Z,81.3
2018-04-05T01:51:45.268Z,80.8
2018-04-05T01:52:46.874Z,81.5
2018-04-05T01:53:48.487Z,81.5
2018-04-05T01:54:50.098Z,81.4
2018-04-05T01:55:51.702Z,81.6
2018-04-05T01:56:53.311Z,81.3
2018-04-05T01:57:54.920Z,81.3
2018-04-05T01:58:56.534Z,81.4
2018-04-05T01:59:58.141Z,81.5
2018-04-05T02:00:59.754Z,81.8
2018-04-05T02:02:01.363Z,81.0
2018-04-05T02:03:02.981Z,81.6
2018-04-05T02:04:04.590Z,81.5
2018-04-05T02:05:06.192Z,81.3
2018-04-05T02:06:07.801Z,81.0
2018-04-05T02:07:09.416Z,82.4
2018-04-05T02:08:11.035Z,81.7
2018-04-05T02:09:12.639Z,81.1
2018-04-05T02:10:14.250Z,81.6
2018-04-05T02:11:15.862Z,80.9
2018-04-05T02:12:17.466Z,80.9
2018-04-05T02:13:19.076Z,81.1
2018-04-05T02:14:20.684Z,81.1
2018-04-05T02:15:22.298Z,81.4
2018-04-05T02:16:23.906Z,81.5
2018-04-05T02:17:25.520Z,81.1
2018-04-05T02:18:27.125Z,81.3
2018-04-05T02:19:28.742Z,81.3
2018-04-05T02:20:30.355Z,81.0
2018-04-05T02:21:31.962Z,81.0
2018-04-05T02:22:33.572Z,81.8
2018-04-05T02:23:35.187Z,81.1
2018-04-05T02:24:36.790Z,81.3
2018-04-05T02:25:38.404Z,81.3
2018-04-05T02:26:40.012Z,81.8
2018-04-05T02:27:41.619Z,81.1
2018-04-05T02:28:43.234Z,81.5
2018-04-05T02:29:44.842Z,81.7
2018-04-05T02:30:46.469Z,81.0
2018-04-05T02:31:48.068Z,80.6
2018-04-05T02:32:49.680Z,80.9
2018-04-05T02:33:51.283Z,80.5
2018-04-05T02:34:52.899Z,79.3
2018-04-05T02:35:54.505Z,79.8
2018-04-05T02:36:56.123Z,79.5
2018-04-05T02:37:57.726Z,80.5
2018-04-05T02:38:59.338Z,78.2
2018-04-05T02:40:00.943Z,80.3
2018-04-05T02:41:02.558Z,79.2
2018-04-05T02:42:04.169Z,79.4
2018-04-05T02:43:05.769Z,79.2
2018-04-05T02:44:07.384Z,80.3
2018-04-05T02:45:08.995Z,80.2
2018-04-05T02:46:10.603Z,79.6
2018-04-05T02:47:12.212Z,79.6
2018-04-05T02:48:13.822Z,79.8
2018-04-05T02:49:15.428Z,79.7
2018-04-05T02:50:17.043Z,79.8
2018-04-05T02:51:18.650Z,80.0
2018-04-05T02:52:20.265Z,79.2
2018-04-05T02:53:21.871Z,79.4
2018-04-05T02:54:23.484Z,79.6
2018-04-05T02:55:25.089Z,80.2
2018-04-05T02:56:26.709Z,79.6
2018-04-05T02:57:28.305Z,78.8
2018-04-05T02:58:29.919Z,79.6
2018-04-05T02:59:31.534Z,80.2
2018-04-05T03:00:33.146Z,79.7
2018-04-05T03:01:34.755Z,79.4
2018-04-05T03:02:36.370Z,79.3
2018-04-05T03:03:37.972Z,79.1
2018-04-05T03:04:39.581Z,78.6
2018-04-05T03:05:41.188Z,79.0
2018-04-05T03:06:42.807Z,78.9
2018-04-05T03:07:44.407Z,79.3
2018-04-05T03:08:46.017Z,79.2
2018-04-05T03:09:47.625Z,79.0
2018-04-05T03:10:49.233Z,78.7
2018-04-05T03:11:50.846Z,78.6
2018-04-05T03:12:52.457Z,79.1
2018-04-05T03:13:54.065Z,79.0
2018-04-05T03:14:55.679Z,78.9
2018-04-05T03:15:57.286Z,78.6
2018-04-05T03:16:58.897Z,78.7
2018-04-05T03:18:00.506Z,78.9
2018-04-05T03:19:02.120Z,79.0
2018-04-05T03:20:03.733Z,79.1
2018-04-05T03:21:05.339Z,79.4
2018-04-05T03:22:06.945Z,79.5
2018-04-05T03:23:08.556Z,80.1
2018-04-05T03:24:10.161Z,79.1
2018-04-05T03:25:11.780Z,79.6
2018-04-05T03:26:13.387Z,79.3
2018-04-05T03:27:14.993Z,79.7
2018-04-05T03:28:16.609Z,80.3
2018-04-05T03:29:18.212Z,80.0
2018-04-05T03:30:19.820Z,80.0
2018-04-05T03:31:21.438Z,80.4
2018-04-05T03:32:23.041Z,79.6
2018-04-05T03:33:24.649Z,79.1
2018-04-05T03:34:26.264Z,80.4
2018-04-05T03:35:27.873Z,79.2
2018-04-05T03:36:29.478Z,79.7
2018-04-05T03:37:31.088Z,79.2
2018-04-05T03:38:32.693Z,79.0
2018-04-05T03:39:34.305Z,79.7
2018-04-05T03:40:35.915Z,79.9
2018-04-05T03:41:37.525Z,79.5
2018-04-05T03:42:39.136Z,79.7
2018-04-05T03:43:40.741Z,79.4
2018-04-05T03:44:42.349Z,79.4
2018-04-05T03:45:43.963Z,79.7
2018-04-05T03:46:45.570Z,80.6
2018-04-05T03:47:47.184Z,79.9
2018-04-05T03:48:48.797Z,80.2
2018-04-05T03:49:50.404Z,80.8
2018-04-05T03:50:52.012Z,79.8
2018-04-05T03:51:53.620Z,80.0
2018-04-05T03:52:55.226Z,79.5
2018-04-05T03:53:56.839Z,79.6
2018-04-05T03:54:58.452Z,80.7
2018-04-05T03:56:00.063Z,80.0
2018-04-05T03:57:01.676Z,80.4
2018-04-05T03:58:03.281Z,80.3
2018-04-05T03:59:04.889Z,80.6
2018-04-05T04:00:06.501Z,80.5
2018-04-05T04:01:08.115Z,80.5
2018-04-05T04:02:09.721Z,80.4
2018-04-05T04:03:11.328Z,80.4
2018-04-05T04:04:12.942Z,80.1
2018-04-05T04:05:14.549Z,80.2
2018-04-05T04:06:16.156Z,80.4
2018-04-05T04:07:17.768Z,80.2
2018-04-05T04:08:19.380Z,79.9
2018-04-05T04:09:20.992Z,80.5
2018-04-05T04:10:22.606Z,80.9
2018-04-05T04:11:24.214Z,80.2
2018-04-05T04:12:25.827Z,81.2
2018-04-05T04:13:27.434Z,80.2
2018-04-05T04:14:29.041Z,81.0
2018-04-05T04:15:30.646Z,81.0
2018-04-05T04:16:32.265Z,81.1
2018-04-05T04:17:33.873Z,80.5
2018-04-05T04:18:35.484Z,81.0
2018-04-05T04:19:37.095Z,81.2
2018-04-05T04:20:38.703Z,80.5
2018-04-05T04:21:40.315Z,80.5
2018-04-05T04:22:41.925Z,81.0
2018-04-05T04:23:43.532Z,80.2
2018-04-05T04:24:45.140Z,81.5
2018-04-05T04:25:46.752Z,80.3
2018-04-05T04:26:48.365Z,80.6
2018-04-05T04:27:49.974Z,80.9
2018-04-05T04:28:51.578Z,81.0
2018-04-05T04:29:53.188Z,81.3
2018-04-05T04:30:54.801Z,81.4
2018-04-05T04:31:56.415Z,80.6
2018-04-05T04:32:58.025Z,80.9
2018-04-05T04:33:59.633Z,82.0
2018-04-05T04:35:01.245Z,81.4
2018-04-05T04:36:02.848Z,81.7
2018-04-05T04:37:04.459Z,81.5
2018-04-05T04:38:06.072Z,80.7
2018-04-05T04:39:07.683Z,81.1
2018-04-05T04:40:09.292Z,81.3
2018-04-05T04:41:10.903Z,80.3
2018-04-05T04:42:12.516Z,80.1
2018-04-05T04:43:14.132Z,80.4
2018-04-05T04:44:15.736Z,81.4
2018-04-05T04:45:17.350Z,80.0
2018-04-05T04:46:18.966Z,79.8
2018-04-05T04:47:20.574Z,80.4
2018-04-05T04:48:22.185Z,80.6
2018-04-05T04:49:23.800Z,80.5
2018-04-05T04:50:25.408Z,80.0
2018-04-05T04:51:27.015Z,80.4
2018-04-05T04:52:28.630Z,79.8
2018-04-05T04:53:30.254Z,80.3
2018-04-05T04:54:31.849Z,80.8
2018-04-05T04:55:33.459Z,80.1
2018-04-05T04:56:35.066Z,80.4
2018-04-05T04:57:36.683Z,79.9
2018-04-05T04:58:38.292Z,80.0
2018-04-05T04:59:39.903Z,80.4
2018-04-05T05:00:41.517Z,80.1
2018-04-05T05:01:43.136Z,80.0
2018-04-05T05:02:44.745Z,80.3
2018-04-05T05:03:46.412Z,80.9
2018-04-05T05:04:48.785Z,80.9
2018-04-05T05:05:50.402Z,80.2
2018-04-05T05:06:52.012Z,80.3
2018-04-05T05:07:53.629Z,81.4
2018-04-05T05:08:55.237Z,81.0
2018-04-05T05:09:56.864Z,81.5
2018-04-05T05:10:58.478Z,80.3
2018-04-05T05:12:00.086Z,81.0
2018-04-05T05:13:01.704Z,81.8
2018-04-05T05:14:03.318Z,81.6
2018-04-05T05:15:04.932Z,80.4
2018-04-05T05:16:06.547Z,81.5
2018-04-05T05:17:08.161Z,81.3
2018-04-05T05:18:09.770Z,82.2
2018-04-05T05:19:11.387Z,81.2
2018-04-05T05:20:12.997Z,80.8
2018-04-05T05:21:14.603Z,81.5
2018-04-05T05:22:16.220Z,81.7
2018-04-05T05:23:17.830Z,82.5
2018-04-05T05:24:19.445Z,81.7
2018-04-05T05:25:21.055Z,82.5
2018-04-05T05:26:22.668Z,82.1
2018-04-05T05:27:24.284Z,82.5
2018-04-05T05:28:25.895Z,82.4
2018-04-05T05:29:27.509Z,82.2
2018-04-05T05:30:29.133Z,82.3
2018-04-05T05:31:30.739Z,81.8
2018-04-05T05:32:32.353Z,81.6
2018-04-05T05:33:33.961Z,82.0
2018-04-05T05:34:35.577Z,81.9
2018-04-05T05:35:37.189Z,81.8
2018-04-05T05:36:39.753Z,82.1
2018-04-05T05:37:41.370Z,83.5
2018-04-05T05:38:42.988Z,81.7
2018-04-05T05:39:44.593Z,81.8
2018-04-05T05:40:46.202Z,82.4
2018-04-05T05:41:47.816Z,83.3
2018-04-05T05:42:49.571Z,83.6
2018-04-05T05:43:51.209Z,83.0
2018-04-05T05:44:52.821Z,82.6
2018-04-05T05:45:54.493Z,82.2
2018-04-05T05:46:57.585Z,82.4
2018-04-05T05:47:59.580Z,83.4
2018-04-05T05:49:01.244Z,81.8
2018-04-05T05:50:03.000Z,83.2
2018-04-05T05:51:04.711Z,82.8
2018-04-05T05:52:06.330Z,82.1
2018-04-05T05:53:07.938Z,82.3
2018-04-05T05:54:09.605Z,81.8
2018-04-05T05:55:11.212Z,82.0
2018-04-05T05:56:12.821Z,82.3
2018-04-05T05:57:14.444Z,82.6
2018-04-05T05:58:16.062Z,82.2
2018-04-05T05:59:17.679Z,82.1
2018-04-05T06:00:19.403Z,82.9
2018-04-05T06:01:20.997Z,83.3
2018-04-05T06:02:22.609Z,82.4
2018-04-05T06:03:24.225Z,82.0
2018-04-05T06:04:25.845Z,82.7
2018-04-05T06:05:27.463Z,82.7
2018-04-05T06:06:29.082Z,83.3
2018-04-05T06:07:31.270Z,82.5
2018-04-05T06:08:32.883Z,82.7
2018-04-05T06:09:34.502Z,83.1
2018-04-05T06:10:36.115Z,82.7
2018-04-05T06:11:37.734Z,81.9
2018-04-05T06:12:39.354Z,80.8
2018-04-05T06:13:40.966Z,82.4
2018-04-05T06:14:42.589Z,83.3
2018-04-05T06:15:44.201Z,83.2
2018-04-05T06:16:45.933Z,83.0
2018-04-05T06:17:47.563Z,83.5
2018-04-05T06:18:49.162Z,85.2
2018-04-05T06:19:50.779Z,83.6
2018-04-05T06:20:52.433Z,83.0
2018-04-05T06:21:54.108Z,83.3
2018-04-05T06:22:55.709Z,83.2
2018-04-05T06:23:57.331Z,83.2
2018-04-05T06:24:59.011Z,82.7
2018-04-05T06:26:00.618Z,82.3
2018-04-05T06:27:02.241Z,82.8
2018-04-05T06:28:03.855Z,82.8
2018-04-05T06:29:05.467Z,82.5
2018-04-05T06:30:07.093Z,84.3
2018-04-05T06:31:08.698Z,82.8
2018-04-05T06:32:10.317Z,83.8
2018-04-05T06:33:11.931Z,83.7
2018-04-05T06:34:13.609Z,82.4
2018-04-05T06:35:15.278Z,82.5
2018-04-05T06:36:16.885Z,82.1
2018-04-05T06:37:18.504Z,83.1
2018-04-05T06:38:22.586Z,83.2
2018-04-05T06:39:24.201Z,83.3
2018-04-05T06:40:25.820Z,82.3
2018-04-05T06:41:27.441Z,82.6
2018-04-05T06:42:29.072Z,82.9
2018-04-05T06:43:30.691Z,83.6
2018-04-05T06:44:32.374Z,83.2
2018-04-05T06:45:33.992Z,83.5
2018-04-05T06:46:35.609Z,83.3
2018-04-05T06:47:37.232Z,83.3
2018-04-05T06:48:38.850Z,82.8
2018-04-05T06:49:40.468Z,83.7
2018-04-05T06:50:42.084Z,82.9
2018-04-05T06:51:43.702Z,82.4
2018-04-05T06:52:45.320Z,84.6
2018-04-05T06:53:46.934Z,83.5
2018-04-05T06:54:48.551Z,83.3
2018-04-05T06:55:50.167Z,83.4
2018-04-05T06:56:51.789Z,83.3
2018-04-05T06:57:53.439Z,83.6
2018-04-05T06:58:55.057Z,83.1
2018-04-05T06:59:56.676Z,83.5
2018-04-05T07:00:58.289Z,83.3
2018-04-05T07:01:59.911Z,82.8
2018-04-05T07:03:01.610Z,83.6
2018-04-05T07:04:03.234Z,82.7
2018-04-05T07:05:04.869Z,83.3
2018-04-05T07:06:06.486Z,83.0
2018-04-05T07:07:08.196Z,82.7
2018-04-05T07:08:09.816Z,82.4
2018-04-05T07:09:11.625Z,82.8
2018-04-05T07:10:13.263Z,83.2
2018-04-05T07:11:14.880Z,82.7
2018-04-05T07:12:16.511Z,82.7
2018-04-05T07:13:18.270Z,83.1
2018-04-05T07:14:19.860Z,82.9
2018-04-05T07:15:22.487Z,83.2
2018-04-05T07:16:24.143Z,82.7
2018-04-05T07:17:25.856Z,82.5
2018-04-05T07:18:27.567Z,83.1
2018-04-05T07:19:29.081Z,82.9
2018-04-05T07:20:30.695Z,82.7
2018-04-05T07:21:32.305Z,83.2
2018-04-05T07:22:33.920Z,82.4
2018-04-05T07:23:35.591Z,83.1
2018-04-05T07:24:37.151Z,82.7
2018-04-05T07:25:39.025Z,82.8
2018-04-05T07:26:40.611Z,82.5
2018-04-05T07:27:42.229Z,82.8
2018-04-05T07:28:43.881Z,83.1
2018-04-05T07:29:45.497Z,81.9
2018-04-05T07:30:47.114Z,81.0
2018-04-05T07:31:48.729Z,81.5
2018-04-05T07:32:50.344Z,80.9
2018-04-05T07:33:51.958Z,81.1
2018-04-05T07:34:53.577Z,81.1
2018-04-05T07:35:55.184Z,80.8
2018-04-05T07:36:56.797Z,80.4
2018-04-05T07:37:58.410Z,81.5
2018-04-05T07:39:00.021Z,80.1
2018-04-05T07:40:01.648Z,80.0
2018-04-05T07:41:03.255Z,79.3
2018-04-05T07:42:04.862Z,78.8
2018-04-05T07:43:06.482Z,79.3
2018-04-05T07:44:08.095Z,78.6
2018-04-05T07:45:09.707Z,79.3
2018-04-05T07:46:11.325Z,78.6
2018-04-05T07:47:13.013Z,78.5
2018-04-05T07:48:14.608Z,78.3
2018-04-05T07:49:16.222Z,79.0
2018-04-05T07:50:17.832Z,78.3
2018-04-05T07:51:19.454Z,77.9
2018-04-05T07:52:21.081Z,78.0
2018-04-05T07:53:22.701Z,77.2
2018-04-05T07:54:24.319Z,76.7
2018-04-05T07:55:27.076Z,77.7
2018-04-05T07:56:28.705Z,77.6
2018-04-05T07:57:30.318Z,78.1
2018-04-05T07:58:31.945Z,77.5
2018-04-05T07:59:33.556Z,76.9
2018-04-05T08:00:35.177Z,78.3
2018-04-05T08:01:36.787Z,77.5
2018-04-05T08:02:38.395Z,76.4
2018-04-05T08:03:40.013Z,79.1
2018-04-05T08:04:41.622Z,79.0
2018-04-05T08:05:43.235Z,78.7
2018-04-05T08:06:44.852Z,78.4
2018-04-05T08:07:46.467Z,78.3
2018-04-05T08:08:48.085Z,79.0
2018-04-05T08:09:49.696Z,79.5
2018-04-05T08:10:51.310Z,78.9
2018-04-05T08:11:52.937Z,79.6
2018-04-05T08:12:54.534Z,79.9
2018-04-05T08:13:56.154Z,79.2
2018-04-05T08:14:57.764Z,81.0
2018-04-05T08:15:59.388Z,80.9
2018-04-05T08:17:00.997Z,78.8
2018-04-05T08:18:02.611Z,79.9
2018-04-05T08:19:04.222Z,79.2
2018-04-05T08:20:05.831Z,80.0
2018-04-05T08:21:07.454Z,80.5
2018-04-05T08:22:09.058Z,79.6
2018-04-05T08:23:10.677Z,79.5
2018-04-05T08:24:12.290Z,80.1
2018-04-05T08:25:13.903Z,78.5
2018-04-05T08:26:15.512Z,77.5
2018-04-05T08:27:17.129Z,79.7
2018-04-05T08:28:18.742Z,79.3
2018-04-05T08:29:20.357Z,79.5
2018-04-05T08:30:21.970Z,80.2
2018-04-05T08:31:23.590Z,79.5
2018-04-05T08:32:25.194Z,80.9
2018-04-05T08:33:26.809Z,79.8
2018-04-05T08:34:28.424Z,79.8
2018-04-05T08:35:30.035Z,80.3
2018-04-05T08:36:31.649Z,81.4
2018-04-05T08:37:33.268Z,80.2
2018-04-05T08:38:34.879Z,81.5
2018-04-05T08:39:36.496Z,80.7
2018-04-05T08:40:38.108Z,79.8
2018-04-05T08:41:39.716Z,81.0
2018-04-05T08:42:41.328Z,81.3
2018-04-05T08:43:42.990Z,81.8
2018-04-05T08:44:44.562Z,81.1
2018-04-05T08:45:46.173Z,81.4
2018-04-05T08:46:47.790Z,81.4
2018-04-05T08:47:49.405Z,81.1
2018-04-05T08:48:51.019Z,80.7
2018-04-05T08:49:52.633Z,80.2
2018-04-05T08:50:54.250Z,80.3
2018-04-05T08:51:55.860Z,81.2
2018-04-05T08:52:57.469Z,80.9
2018-04-05T08:53:59.086Z,80.6
2018-04-05T08:55:00.691Z,81.1
2018-04-05T08:56:02.308Z,80.3
2018-04-05T08:57:03.923Z,80.2
2018-04-05T08:58:05.533Z,80.8
2018-04-05T08:59:07.148Z,80.4
2018-04-05T09:00:08.759Z,80.9
2018-04-05T09:01:10.372Z,79.9
2018-04-05T09:02:11.987Z,80.0
2018-04-05T09:03:13.593Z,79.8
2018-04-05T09:04:15.209Z,80.1
2018-04-05T09:05:16.820Z,80.4
2018-04-05T09:06:18.434Z,80.0
2018-04-05T09:07:20.046Z,79.7
2018-04-05T09:08:21.658Z,79.4
2018-04-05T09:09:23.276Z,81.1
2018-04-05T09:10:24.888Z,79.6
2018-04-05T09:11:26.496Z,80.1
2018-04-05T09:12:28.112Z,79.3
2018-04-05T09:13:29.730Z,80.1
2018-04-05T09:14:31.336Z,79.7
2018-04-05T09:15:32.944Z,80.1
2018-04-05T09:16:34.554Z,80.2
2018-04-05T09:17:36.165Z,80.0
2018-04-05T09:18:37.782Z,79.8
2018-04-05T09:19:39.396Z,80.0
2018-04-05T09:20:41.014Z,79.7
2018-04-05T09:21:42.622Z,79.8
2018-04-05T09:22:44.231Z,80.5
2018-04-05T09:23:45.840Z,80.6
2018-04-05T09:24:47.454Z,81.8
2018-04-05T09:25:49.068Z,80.6
2018-04-05T09:26:50.684Z,80.0
2018-04-05T09:27:52.298Z,81.9
2018-04-05T09:28:54.610Z,81.6
2018-04-05T09:29:56.225Z,80.9
2018-04-05T09:30:57.835Z,81.6
2018-04-05T09:31:59.448Z,80.3
2018-04-05T09:33:01.066Z,81.6
2018-04-05T09:34:02.684Z,82.4
2018-04-05T09:35:04.301Z,81.9
2018-04-05T09:36:05.912Z,82.9
2018-04-05T09:37:07.529Z,84.2
2018-04-05T09:38:09.142Z,82.8
2018-04-05T09:39:10.764Z,82.0
2018-04-05T09:40:12.370Z,82.8
2018-04-05T09:41:17.916Z,81.6
2018-04-05T09:42:19.571Z,82.1
2018-04-05T09:43:21.188Z,82.7
2018-04-05T09:44:23.801Z,84.7
2018-04-05T09:45:26.763Z,84.3
2018-04-05T09:46:29.538Z,84.5
2018-04-05T09:47:32.056Z,82.7
2018-04-05T09:48:34.501Z,84.5
2018-04-05T09:49:37.753Z,84.1
2018-04-05T09:50:40.557Z,84.5
2018-04-05T09:51:43.467Z,87.9
2018-04-05T09:52:46.695Z,84.2
2018-04-05T09:53:48.347Z,84.5
2018-04-05T09:54:50.020Z,83.0
2018-04-05T09:55:51.911Z,85.0
2018-04-05T09:56:53.511Z,85.9
2018-04-05T09:57:55.118Z,86.0
2018-04-05T09:58:56.729Z,85.0
2018-04-05T09:59:58.346Z,85.7
2018-04-05T10:00:59.961Z,86.7
2018-04-05T10:02:01.578Z,84.1
2018-04-05T10:03:03.257Z,85.2
2018-04-05T10:04:04.880Z,84.5
2018-04-05T10:05:06.522Z,83.7
2018-04-05T10:06:08.263Z,84.9
2018-04-05T10:07:09.847Z,84.2
2018-04-05T10:08:11.464Z,84.7
2018-04-05T10:09:13.071Z,85.0
2018-04-05T10:10:14.693Z,84.6
2018-04-05T10:11:16.317Z,84.7
2018-04-05T10:12:17.930Z,84.9
2018-04-05T10:13:19.549Z,86.6
2018-04-05T10:14:21.164Z,85.1
2018-04-05T10:15:22.783Z,85.2
2018-04-05T10:16:24.399Z,86.0
2018-04-05T10:17:26.020Z,88.7
2018-04-05T10:18:27.635Z,87.8
2018-04-05T10:19:29.253Z,86.4
2018-04-05T10:20:30.866Z,88.4
2018-04-05T10:21:32.480Z,86.4
2018-04-05T10:22:34.100Z,86.3
2018-04-05T10:23:35.714Z,87.7
2018-04-05T10:24:37.339Z,87.7
2018-04-05T10:25:38.952Z,87.8
2018-04-05T10:26:40.571Z,87.1
2018-04-05T10:27:42.184Z,88.2
2018-04-05T10:28:43.796Z,87.3
2018-04-05T10:29:45.419Z,88.1
2018-04-05T10:30:47.036Z,87.6
2018-04-05T10:31:48.658Z,87.1
2018-04-05T10:32:50.276Z,86.8
2018-04-05T10:33:51.895Z,87.6
2018-04-05T10:34:53.512Z,87.7
2018-04-05T10:35:55.568Z,88.9
2018-04-05T10:36:58.687Z,87.9
2018-04-05T10:38:01.473Z,87.3
2018-04-05T10:39:04.037Z,86.0
2018-04-05T10:40:06.807Z,87.2
2018-04-05T10:41:09.093Z,86.5
2018-04-05T10:42:12.057Z,86.3
2018-04-05T10:43:14.106Z,86.8
2018-04-05T10:44:16.821Z,85.6
2018-04-05T10:45:20.560Z,85.1
2018-04-05T10:46:23.508Z,85.6
2018-04-05T10:47:26.494Z,85.3
2018-04-05T10:48:29.961Z,85.1
2018-04-05T10:49:33.064Z,85.4
2018-04-05T10:50:35.450Z,86.0
2018-04-05T10:51:37.370Z,86.2
2018-04-05T10:52:39.598Z,85.6
2018-04-05T10:53:43.168Z,85.6
2018-04-05T10:54:44.923Z,86.0
2018-04-05T10:55:46.849Z,85.7
2018-04-05T10:56:49.725Z,84.9
2018-04-05T10:57:51.401Z,85.8
2018-04-05T10:58:53.513Z,85.4
2018-04-05T10:59:55.506Z,85.4
2018-04-05T11:00:57.335Z,84.8
2018-04-05T11:01:59.099Z,85.3
2018-04-05T11:03:00.698Z,85.5
2018-04-05T11:04:02.600Z,85.5
2018-04-05T11:05:04.246Z,85.2
2018-04-05T11:06:05.865Z,85.8
2018-04-05T11:07:07.642Z,84.6
2018-04-05T11:08:09.429Z,85.3
2018-04-05T11:09:11.202Z,84.8
2018-04-05T11:10:12.816Z,85.9
2018-04-05T11:11:14.971Z,85.0
2018-04-05T11:12:16.822Z,85.5
2018-04-05T11:13:18.527Z,86.1
2018-04-05T11:14:20.390Z,85.0
2018-04-05T11:15:22.176Z,86.0
2018-04-05T11:16:23.968Z,85.2
2018-04-05T11:17:25.718Z,85.2
2018-04-05T11:18:28.611Z,85.6
2018-04-05T11:19:30.809Z,85.3
2018-04-05T11:20:32.676Z,83.4
2018-04-05T11:21:34.335Z,84.3
2018-04-05T11:22:36.256Z,84.2
2018-04-05T11:23:38.099Z,84.6
2018-04-05T11:24:40.569Z,83.6
2018-04-05T11:25:42.402Z,83.8
2018-04-05T11:26:44.006Z,84.1
2018-04-05T11:27:47.126Z,84.4
2018-04-05T11:28:48.931Z,83.6
2018-04-05T11:29:50.527Z,84.1
2018-04-05T11:30:52.150Z,83.9
2018-04-05T11:31:54.502Z,83.2
2018-04-05T11:32:56.852Z,83.4
2018-04-05T11:33:58.721Z,83.5
2018-04-05T11:35:01.989Z,83.6
2018-04-05T11:36:03.756Z,83.2
2018-04-05T11:37:05.386Z,82.7
2018-04-05T11:38:08.528Z,82.8
2018-04-05T11:39:10.076Z,83.0
2018-04-05T11:40:11.974Z,82.9
2018-04-05T11:41:13.639Z,82.9
2018-04-05T11:42:15.254Z,83.1
2018-04-05T11:43:17.661Z,83.8
2018-04-05T11:44:19.513Z,83.3
2018-04-05T11:45:21.130Z,84.0
2018-04-05T11:46:22.945Z,83.2
2018-04-05T11:47:24.760Z,83.6
2018-04-05T11:48:27.299Z,82.8
2018-04-05T11:49:28.953Z,83.8
2018-04-05T11:50:30.591Z,84.5
2018-04-05T11:51:32.201Z,84.8
2018-04-05T11:52:33.903Z,85.4
2018-04-05T11:53:35.499Z,84.9
2018-04-05T11:54:37.128Z,85.4
2018-04-05T11:55:38.750Z,85.5
2018-04-05T11:56:40.371Z,84.4
2018-04-05T11:57:41.987Z,84.6
2018-04-05T11:58:43.615Z,84.6
2018-04-05T11:59:45.238Z,83.6
2018-04-05T12:00:46.889Z,83.4
2018-04-05T12:01:48.503Z,84.2
2018-04-05T12:02:50.128Z,83.3
2018-04-05T12:03:51.744Z,83.3
2018-04-05T12:04:53.360Z,84.2
2018-04-05T12:05:54.978Z,83.9
2018-04-05T12:06:56.603Z,82.9
2018-04-05T12:07:58.221Z,84.6
2018-04-05T12:08:59.837Z,85.5
2018-04-05T12:10:01.463Z,84.3
2018-04-05T12:11:03.077Z,84.9
2018-04-05T12:12:04.937Z,84.6
2018-04-05T12:13:06.542Z,84.0
2018-04-05T12:14:08.268Z,83.5
2018-04-05T12:15:09.891Z,83.3
2018-04-05T12:16:11.907Z,82.6
2018-04-05T12:17:13.495Z,82.3
2018-04-05T12:18:15.114Z,82.5
2018-04-05T12:19:16.731Z,82.3
2018-04-05T12:20:18.353Z,82.2
2018-04-05T12:21:19.989Z,82.2
2018-04-05T12:22:21.643Z,83.0
2018-04-05T12:23:23.261Z,83.5
2018-04-05T12:24:25.589Z,83.4
2018-04-05T12:25:27.173Z,82.8
2018-04-05T12:26:28.787Z,82.9
2018-04-05T12:27:30.408Z,83.3
2018-04-05T12:28:32.022Z,83.7
2018-04-05T12:29:34.573Z,82.6
2018-04-05T12:30:36.302Z,83.8
2018-04-05T12:31:37.915Z,83.9
2018-04-05T12:32:39.532Z,83.6
2018-04-05T12:33:42.015Z,83.7
2018-04-05T12:34:43.637Z,84.0
2018-04-05T12:35:45.250Z,83.8
2018-04-05T12:36:46.865Z,83.8
2018-04-05T12:37:48.482Z,84.2
2018-04-05T12:38:50.093Z,84.1
2018-04-05T12:39:51.714Z,84.6
2018-04-05T12:40:53.327Z,83.7
2018-04-05T12:41:54.941Z,82.7
2018-04-05T12:42:56.564Z,83.4
2018-04-05T12:43:58.184Z,85.2
2018-04-05T12:44:59.797Z,85.7
2018-04-05T12:46:01.413Z,84.2
2018-04-05T12:47:03.027Z,86.6
2018-04-05T12:48:05.261Z,85.6
2018-04-05T12:49:06.885Z,84.7
2018-04-05T12:50:08.499Z,85.8
2018-04-05T12:51:10.116Z,85.6
2018-04-05T12:52:11.736Z,85.4
2018-04-05T12:53:13.353Z,86.0
2018-04-05T12:54:14.971Z,86.2
2018-04-05T12:55:16.588Z,86.0
2018-04-05T12:56:18.207Z,84.2
2018-04-05T12:57:19.829Z,85.4
2018-04-05T12:58:22.198Z,85.7
2018-04-05T12:59:23.809Z,84.4
2018-04-05T13:00:25.427Z,84.9
2018-04-05T13:01:27.038Z,85.6
2018-04-05T13:02:28.660Z,85.0
2018-04-05T13:03:30.274Z,84.7
2018-04-05T13:04:31.893Z,84.1
2018-04-05T13:05:33.506Z,84.1
2018-04-05T13:06:35.116Z,85.3
2018-04-05T13:07:36.742Z,84.9
2018-04-05T13:08:38.360Z,85.0
2018-04-05T13:09:39.979Z,84.8
2018-04-05T13:10:41.593Z,84.5
2018-04-05T13:11:43.211Z,85.9
2018-04-05T13:12:44.819Z,85.9
2018-04-05T13:13:46.444Z,85.1
2018-04-05T13:14:48.056Z,84.6
2018-04-05T13:15:49.671Z,84.9
2018-04-05T13:16:51.285Z,84.8
2018-04-05T13:17:52.933Z,84.9
2018-04-05T13:18:54.518Z,85.3
2018-04-05T13:19:56.128Z,85.7
2018-04-05T13:20:57.749Z,85.2
2018-04-05T13:21:59.358Z,85.0
2018-04-05T13:23:00.970Z,85.3
2018-04-05T13:24:02.586Z,85.2
2018-04-05T13:25:04.201Z,84.3
2018-04-05T13:26:05.822Z,84.7
2018-04-05T13:27:07.432Z,84.9
2018-04-05T13:28:09.048Z,85.8
2018-04-05T13:29:10.658Z,84.9
2018-04-05T13:30:12.275Z,85.9
2018-04-05T13:31:13.893Z,85.2
2018-04-05T13:32:15.504Z,85.3
2018-04-05T13:33:17.137Z,85.2
2018-04-05T13:34:18.747Z,84.4
2018-04-05T13:35:20.361Z,84.7
2018-04-05T13:36:21.978Z,84.7
2018-04-05T13:37:23.592Z,85.2
2018-04-05T13:38:25.203Z,85.3
2018-04-05T13:39:26.823Z,84.7
2018-04-05T13:40:28.434Z,84.1
2018-04-05T13:41:30.048Z,85.0